Time;durP1;ratioP1;P1;durP2;ratioP2;P2;SDS_P1;SDS_P2;PMS_P1;PMS_P2;Temp;Humidity;BMP_temperature;BMP_pressure;BME280_temperature;BME280_humidity;BME280_pressure;Samples;Min_cycle;Max_cycle;Signal;HPM_P1;HPM_P2
2024/01/19 00:00:03;;;;;;;21.70;13.15;;;;;;;;;;5070615;28;20025;-85
2024/01/19 00:02:29;;;;;;;25.00;13.68;;;;;;;;;;5068735;28;20065;-85
2024/01/19 00:04:55;;;;;;;22.13;13.50;;;;;;;;;;5069113;28;20020;-86
2024/01/19 00:07:21;;;;;;;23.77;12.30;;;;;;;;;;5071147;28;20031;-86
2024/01/19 00:09:47;;;;;;;20.15;13.05;;;;;;;;;;5070247;28;20399;-85
2024/01/19 00:12:13;;;;;;;20.73;12.55;;;;;;;;;;5068750;28;20024;-85
2024/01/19 00:14:39;;;;;;;21.63;12.73;;;;;;;;;;5068827;28;20112;-86
2024/01/19 00:17:05;;;;;;;23.20;12.23;;;;;;;;;;5068865;28;20468;-86
2024/01/19 00:19:32;;;;;;;21.23;12.85;;;;;;;;;;5068721;28;20383;-83
2024/01/19 00:21:58;;;;;;;19.63;11.90;;;;;;;;;;5070196;28;20530;-86
2024/01/19 00:24:25;;;;;;;20.42;12.25;;;;;;;;;;5071037;28;20024;-84
2024/01/19 00:26:51;;;;;;;19.25;11.38;;;;;;;;;;5077059;28;20031;-85
2024/01/19 00:29:17;;;;;;;27.00;12.63;;;;;;;;;;5088769;28;20036;-86
2024/01/19 00:31:46;;;;;;;23.80;12.82;;;;;;;;;;5090103;28;20035;-84
2024/01/19 00:34:13;;;;;;;19.58;12.95;;;;;;;;;;5089922;28;20024;-85
2024/01/19 00:36:39;;;;;;;19.10;12.30;;;;;;;;;;5090076;28;20024;-85
2024/01/19 00:39:05;;;;;;;21.48;13.02;;;;;;;;;;5077695;28;20031;-85
2024/01/19 00:41:31;;;;;;;24.25;13.80;;;;;;;;;;5069694;28;20383;-86
2024/01/19 00:43:57;;;;;;;24.23;13.93;;;;;;;;;;5069720;28;20025;-85
2024/01/19 00:46:23;;;;;;;27.35;14.75;;;;;;;;;;5070486;28;20027;-85
2024/01/19 00:48:49;;;;;;;26.98;14.32;;;;;;;;;;5069624;28;20024;-85
2024/01/19 00:51:16;;;;;;;29.77;15.07;;;;;;;;;;5069582;28;20051;-85
2024/01/19 00:53:42;;;;;;;24.65;14.90;;;;;;;;;;5068969;28;20020;-85
2024/01/19 00:56:08;;;;;;;21.98;13.55;;;;;;;;;;5082016;28;20038;-85
2024/01/19 00:58:35;;;;;;;23.02;13.65;;;;;;;;;;5088351;28;20031;-85
2024/01/19 01:01:01;;;;;;;21.02;13.23;;;;;;;;;;5088225;28;20399;-85
2024/01/19 01:03:28;;;;;;;22.40;12.38;;;;;;;;;;5090065;28;20028;-84
2024/01/19 01:05:57;;;;;;;24.95;13.20;;;;;;;;;;5090326;28;20027;-85
2024/01/19 01:08:27;;;;;;;25.48;13.35;;;;;;;;;;5089385;28;20170;-85
2024/01/19 01:10:54;;;;;;;24.80;14.38;;;;;;;;;;5090301;28;20031;-84
2024/01/19 01:13:20;;;;;;;36.03;16.02;;;;;;;;;;5089474;28;20469;-84
2024/01/19 01:15:46;;;;;;;26.17;15.23;;;;;;;;;;5089287;28;20036;-84
2024/01/19 01:18:12;;;;;;;19.85;12.98;;;;;;;;;;5072748;28;20404;-84
2024/01/19 01:20:38;;;;;;;23.25;12.43;;;;;;;;;;5069108;28;20025;-83
2024/01/19 01:23:05;;;;;;;22.92;12.98;;;;;;;;;;5069225;28;20021;-84
2024/01/19 01:25:32;;;;;;;24.85;13.55;;;;;;;;;;5069038;28;20077;-84
2024/01/19 01:27:58;;;;;;;25.27;13.75;;;;;;;;;;5069622;28;20465;-84
2024/01/19 01:30:24;;;;;;;23.95;13.52;;;;;;;;;;5069525;28;20103;-84
2024/01/19 01:32:50;;;;;;;26.95;14.63;;;;;;;;;;5077077;28;20047;-84
2024/01/19 01:35:16;;;;;;;22.15;14.15;;;;;;;;;;5089025;28;20059;-83
2024/01/19 01:37:42;;;;;;;27.83;14.30;;;;;;;;;;5089093;28;20113;-83
2024/01/19 01:40:08;;;;;;;23.75;14.07;;;;;;;;;;5089074;28;20021;-83
2024/01/19 01:42:35;;;;;;;21.50;13.98;;;;;;;;;;5089046;28;20028;-86
2024/01/19 01:45:01;;;;;;;27.77;16.17;;;;;;;;;;5074484;28;20103;-85
2024/01/19 01:47:28;;;;;;;27.38;16.45;;;;;;;;;;5068286;28;20029;-85
2024/01/19 01:49:54;;;;;;;21.75;11.93;;;;;;;;;;5069183;28;20028;-86
2024/01/19 01:52:21;;;;;;;14.07;9.48;;;;;;;;;;5068902;28;20023;-85
2024/01/19 01:54:47;;;;;;;14.02;9.50;;;;;;;;;;5068725;28;20055;-85
2024/01/19 01:57:13;;;;;;;14.07;8.85;;;;;;;;;;5067210;28;20460;-84
2024/01/19 01:59:39;;;;;;;14.18;8.85;;;;;;;;;;5068648;28;20537;-85
2024/01/19 02:02:05;;;;;;;14.88;9.35;;;;;;;;;;5068650;28;20028;-84
2024/01/19 02:04:31;;;;;;;15.48;8.52;;;;;;;;;;5068901;28;20067;-84
2024/01/19 02:06:58;;;;;;;12.27;8.02;;;;;;;;;;5069283;28;20134;-83
2024/01/19 02:09:23;;;;;;;13.52;8.90;;;;;;;;;;5068547;28;20139;-85
2024/01/19 02:11:50;;;;;;;12.48;8.02;;;;;;;;;;5068656;28;20306;-84
2024/01/19 02:14:15;;;;;;;15.60;9.05;;;;;;;;;;5067250;28;20052;-85
2024/01/19 02:16:41;;;;;;;14.90;9.02;;;;;;;;;;5068519;28;20475;-85
2024/01/19 02:19:07;;;;;;;13.25;8.45;;;;;;;;;;5067948;28;20092;-85
2024/01/19 02:21:33;;;;;;;13.75;9.10;;;;;;;;;;5081925;28;20043;-84
2024/01/19 02:24:03;;;;;;;14.50;9.10;;;;;;;;;;5093418;28;20020;-86
2024/01/19 02:26:34;;;;;;;17.17;9.63;;;;;;;;;;5073573;28;20120;-83
2024/01/19 02:29:01;;;;;;;14.27;9.65;;;;;;;;;;5050676;28;20029;-83
2024/01/19 02:31:27;;;;;;;24.80;9.32;;;;;;;;;;5058561;28;20120;-83
2024/01/19 02:33:53;;;;;;;14.00;9.10;;;;;;;;;;5078489;28;20025;-82
2024/01/19 02:36:19;;;;;;;15.88;11.00;;;;;;;;;;5074804;28;20040;-82
2024/01/19 02:38:45;;;;;;;21.35;10.93;;;;;;;;;;5067287;28;20032;-84
2024/01/19 02:41:11;;;;;;;17.42;10.38;;;;;;;;;;5053219;28;20028;-83
2024/01/19 02:43:37;;;;;;;16.05;10.18;;;;;;;;;;5061990;28;20052;-83
2024/01/19 02:46:03;;;;;;;17.92;10.85;;;;;;;;;;5073959;28;20082;-83
2024/01/19 02:48:29;;;;;;;15.57;9.77;;;;;;;;;;5076935;28;20028;-83
2024/01/19 02:50:55;;;;;;;17.40;10.50;;;;;;;;;;5071546;28;20073;-82
2024/01/19 02:53:21;;;;;;;17.10;10.68;;;;;;;;;;5054495;28;20037;-82
2024/01/19 02:55:47;;;;;;;14.65;10.32;;;;;;;;;;5069380;28;20111;-83
2024/01/19 02:58:13;;;;;;;16.38;10.40;;;;;;;;;;5071676;28;20055;-82
2024/01/19 03:00:39;;;;;;;18.52;11.07;;;;;;;;;;5070106;28;20051;-83
2024/01/19 03:03:05;;;;;;;18.08;11.05;;;;;;;;;;5071863;28;20472;-83
2024/01/19 03:05:32;;;;;;;16.67;10.95;;;;;;;;;;5072586;28;20028;-83
2024/01/19 03:07:58;;;;;;;18.52;10.77;;;;;;;;;;5070645;28;20366;-82
2024/01/19 03:10:24;;;;;;;19.58;10.75;;;;;;;;;;5072581;28;20036;-82
2024/01/19 03:12:50;;;;;;;29.08;14.95;;;;;;;;;;5052156;28;20021;-83
2024/01/19 03:15:16;;;;;;;24.38;12.15;;;;;;;;;;5051574;28;20182;-83
2024/01/19 03:17:42;;;;;;;16.27;10.45;;;;;;;;;;5051405;28;20029;-82
2024/01/19 03:20:08;;;;;;;16.17;10.38;;;;;;;;;;5058783;28;20074;-83
2024/01/19 03:22:34;;;;;;;15.10;9.50;;;;;;;;;;5071685;28;20048;-82
2024/01/19 03:25:02;;;;;;;18.20;9.93;;;;;;;;;;5072276;28;20440;-82
2024/01/19 03:27:28;;;;;;;18.13;10.38;;;;;;;;;;5071470;28;20380;-82
2024/01/19 03:29:55;;;;;;;16.95;9.30;;;;;;;;;;5069759;28;21016;-82
2024/01/19 03:32:21;;;;;;;19.20;10.32;;;;;;;;;;5071256;28;20367;-83
2024/01/19 03:34:47;;;;;;;17.17;10.65;;;;;;;;;;5070686;28;20488;-83
2024/01/19 03:37:14;;;;;;;18.52;10.85;;;;;;;;;;5070101;28;20021;-83
2024/01/19 03:39:40;;;;;;;13.18;9.60;;;;;;;;;;5071236;28;20108;-82
2024/01/19 03:42:06;;;;;;;13.55;9.25;;;;;;;;;;5071647;28;20031;-83
2024/01/19 03:44:32;;;;;;;16.17;9.52;;;;;;;;;;5071180;28;20496;-83
2024/01/19 03:47:02;;;;;;;18.08;9.98;;;;;;;;;;5070211;28;20017;-82
2024/01/19 03:49:28;;;;;;;15.88;9.30;;;;;;;;;;5071122;28;20024;-85
2024/01/19 03:51:57;;;;;;;19.05;11.20;;;;;;;;;;5068559;28;20039;-82
2024/01/19 03:54:23;;;;;;;15.38;9.63;;;;;;;;;;5070388;28;20396;-82
2024/01/19 03:56:49;;;;;;;17.55;9.70;;;;;;;;;;5070561;28;20115;-82
2024/01/19 03:59:15;;;;;;;15.23;9.50;;;;;;;;;;5070490;28;20143;-82
2024/01/19 04:01:42;;;;;;;17.55;9.60;;;;;;;;;;5068605;28;20513;-83
2024/01/19 04:04:07;;;;;;;14.43;9.77;;;;;;;;;;5062065;28;20051;-82
2024/01/19 04:06:33;;;;;;;17.05;9.18;;;;;;;;;;5066675;28;20381;-82
2024/01/19 04:08:59;;;;;;;14.50;9.48;;;;;;;;;;5050616;28;20155;-82
2024/01/19 04:11:26;;;;;;;16.88;10.00;;;;;;;;;;5067764;28;20021;-82
2024/01/19 04:13:51;;;;;;;12.57;9.32;;;;;;;;;;5070842;28;20024;-82
2024/01/19 04:16:18;;;;;;;15.60;8.65;;;;;;;;;;5069008;28;20043;-82
2024/01/19 04:18:44;;;;;;;13.73;8.50;;;;;;;;;;5070488;28;20099;-82
2024/01/19 04:21:10;;;;;;;13.15;8.40;;;;;;;;;;5061554;28;20124;-82
2024/01/19 04:23:36;;;;;;;13.35;8.13;;;;;;;;;;5050859;28;20086;-82
2024/01/19 04:26:02;;;;;;;13.77;8.00;;;;;;;;;;5049903;28;20017;-82
2024/01/19 04:28:28;;;;;;;12.88;8.20;;;;;;;;;;5050345;28;20320;-82
2024/01/19 04:30:54;;;;;;;11.40;7.65;;;;;;;;;;5065832;28;20055;-82
2024/01/19 04:33:20;;;;;;;10.73;7.40;;;;;;;;;;5069755;28;20046;-82
2024/01/19 04:35:46;;;;;;;9.23;6.78;;;;;;;;;;5068854;28;20042;-83
2024/01/19 04:38:13;;;;;;;14.90;7.53;;;;;;;;;;5061298;28;20045;-82
2024/01/19 04:40:39;;;;;;;12.70;6.82;;;;;;;;;;5065460;28;20087;-82
2024/01/19 04:43:05;;;;;;;10.95;7.47;;;;;;;;;;5049621;28;20108;-82
2024/01/19 04:45:31;;;;;;;11.70;7.15;;;;;;;;;;5049304;28;20021;-82
2024/01/19 04:47:57;;;;;;;10.30;6.75;;;;;;;;;;5066877;28;20036;-82
2024/01/19 04:50:23;;;;;;;12.95;7.15;;;;;;;;;;5069645;28;20025;-82
2024/01/19 04:52:49;;;;;;;12.43;7.65;;;;;;;;;;5069898;28;20548;-84
2024/01/19 04:55:15;;;;;;;9.80;6.75;;;;;;;;;;5068136;28;20527;-83
2024/01/19 04:57:41;;;;;;;12.57;6.85;;;;;;;;;;5069751;28;20074;-82
2024/01/19 05:00:07;;;;;;;12.43;7.93;;;;;;;;;;5069665;28;20032;-81
2024/01/19 05:02:33;;;;;;;10.35;6.95;;;;;;;;;;5066017;28;20029;-83
2024/01/19 05:05:00;;;;;;;12.75;6.95;;;;;;;;;;5084033;28;20252;-81
2024/01/19 05:07:26;;;;;;;13.00;6.95;;;;;;;;;;5068476;28;20388;-83
2024/01/19 05:09:52;;;;;;;12.13;6.85;;;;;;;;;;5068415;28;20029;-82
2024/01/19 05:12:18;;;;;;;13.85;6.65;;;;;;;;;;5069378;28;20052;-82
2024/01/19 05:14:47;;;;;;;9.52;6.57;;;;;;;;;;5066657;28;20064;-83
2024/01/19 05:17:13;;;;;;;11.63;6.57;;;;;;;;;;5067014;28;20431;-83
2024/01/19 05:19:39;;;;;;;9.15;6.50;;;;;;;;;;5062111;28;20036;-82
2024/01/19 05:22:06;;;;;;;10.80;6.80;;;;;;;;;;5067729;28;20495;-84
2024/01/19 05:24:32;;;;;;;13.07;7.40;;;;;;;;;;5067144;28;20017;-83
2024/01/19 05:26:59;;;;;;;11.85;7.07;;;;;;;;;;5067393;28;20051;-84
2024/01/19 05:29:25;;;;;;;11.13;6.90;;;;;;;;;;5067087;28;20496;-85
2024/01/19 05:31:51;;;;;;;8.90;6.95;;;;;;;;;;5068907;28;20095;-90
2024/01/19 05:34:17;;;;;;;10.35;6.63;;;;;;;;;;5068494;28;20063;-83
2024/01/19 05:36:43;;;;;;;8.30;6.43;;;;;;;;;;5069025;28;20028;-82
2024/01/19 05:39:09;;;;;;;10.20;6.53;;;;;;;;;;5069257;28;20028;-82
2024/01/19 05:41:35;;;;;;;11.38;6.72;;;;;;;;;;5068972;28;20067;-84
2024/01/19 05:44:01;;;;;;;10.57;7.13;;;;;;;;;;5069891;28;20201;-83
2024/01/19 05:46:27;;;;;;;8.52;6.18;;;;;;;;;;5068375;28;20116;-82
2024/01/19 05:48:53;;;;;;;9.43;6.50;;;;;;;;;;5068767;28;20096;-82
2024/01/19 05:51:19;;;;;;;10.68;6.70;;;;;;;;;;5068661;28;20025;-82
2024/01/19 05:53:45;;;;;;;11.35;7.22;;;;;;;;;;5070354;28;20365;-82
2024/01/19 05:56:11;;;;;;;16.00;7.43;;;;;;;;;;5073582;28;20386;-82
2024/01/19 05:58:37;;;;;;;10.07;7.65;;;;;;;;;;5058374;28;20031;-82
2024/01/19 06:01:04;;;;;;;8.80;6.45;;;;;;;;;;5056813;28;20440;-81
2024/01/19 06:03:33;;;;;;;11.88;7.40;;;;;;;;;;5064874;28;20094;-83
2024/01/19 06:05:59;;;;;;;12.25;7.40;;;;;;;;;;5069312;28;20013;-84
2024/01/19 06:08:25;;;;;;;14.32;6.95;;;;;;;;;;5070727;28;20036;-83
2024/01/19 06:10:51;;;;;;;8.38;6.32;;;;;;;;;;5072308;28;20024;-83
2024/01/19 06:13:16;;;;;;;10.20;6.32;;;;;;;;;;5072604;28;20046;-83
2024/01/19 06:15:43;;;;;;;10.95;6.90;;;;;;;;;;5073016;28;20033;-82
2024/01/19 06:18:09;;;;;;;10.85;7.00;;;;;;;;;;5071950;28;20025;-83
2024/01/19 06:20:40;;;;;;;8.48;5.80;;;;;;;;;;5072440;28;20435;-81
2024/01/19 06:23:06;;;;;;;13.10;7.22;;;;;;;;;;5072558;28;20024;-81
2024/01/19 06:25:32;;;;;;;17.67;7.57;;;;;;;;;;5072053;28;20400;-80
2024/01/19 06:27:59;;;;;;;10.73;6.88;;;;;;;;;;5070781;28;20032;-81
2024/01/19 06:30:25;;;;;;;14.05;6.75;;;;;;;;;;5070893;28;20044;-82
2024/01/19 06:32:50;;;;;;;13.55;7.10;;;;;;;;;;5070932;28;20021;-81
2024/01/19 06:35:17;;;;;;;9.40;6.88;;;;;;;;;;5072063;28;20468;-82
2024/01/19 06:37:43;;;;;;;11.68;6.72;;;;;;;;;;5072971;28;20024;-82
2024/01/19 06:40:10;;;;;;;10.27;6.78;;;;;;;;;;5071787;28;20035;-82
2024/01/19 06:42:37;;;;;;;13.82;6.82;;;;;;;;;;5071612;28;20032;-82
2024/01/19 06:45:04;;;;;;;11.57;6.70;;;;;;;;;;5071884;28;20035;-82
2024/01/19 06:47:31;;;;;;;12.10;5.75;;;;;;;;;;5071867;28;20547;-82
2024/01/19 06:49:57;;;;;;;7.85;5.05;;;;;;;;;;5071843;28;20056;-83
2024/01/19 06:52:23;;;;;;;7.63;5.35;;;;;;;;;;5071734;28;20032;-82
2024/01/19 06:54:49;;;;;;;9.25;5.68;;;;;;;;;;5071725;28;20484;-82
2024/01/19 06:57:15;;;;;;;7.68;5.18;;;;;;;;;;5071656;28;20496;-80
2024/01/19 06:59:41;;;;;;;8.50;5.60;;;;;;;;;;5070955;28;20085;-83
2024/01/19 07:02:08;;;;;;;7.57;5.22;;;;;;;;;;5071791;28;20024;-82
2024/01/19 07:04:34;;;;;;;6.70;4.88;;;;;;;;;;5070815;28;20031;-80
2024/01/19 07:07:00;;;;;;;7.22;5.45;;;;;;;;;;5070217;28;20119;-82
2024/01/19 07:09:29;;;;;;;10.95;5.93;;;;;;;;;;5071581;28;20029;-82
2024/01/19 07:11:55;;;;;;;10.15;6.05;;;;;;;;;;5070842;28;20115;-80
2024/01/19 07:14:21;;;;;;;7.93;5.85;;;;;;;;;;5070127;28;20023;-82
2024/01/19 07:16:47;;;;;;;9.00;5.60;;;;;;;;;;5071520;28;20042;-81
2024/01/19 07:19:13;;;;;;;13.52;6.05;;;;;;;;;;5072302;28;20092;-82
2024/01/19 07:21:43;;;;;;;8.32;5.35;;;;;;;;;;5071406;28;20089;-81
2024/01/19 07:24:09;;;;;;;8.63;5.65;;;;;;;;;;5071368;28;20024;-81
2024/01/19 07:26:36;;;;;;;6.40;5.30;;;;;;;;;;5070694;28;20503;-82
2024/01/19 07:29:06;;;;;;;8.93;5.47;;;;;;;;;;5069798;28;20060;-83
2024/01/19 07:31:33;;;;;;;8.95;5.07;;;;;;;;;;5071688;28;20430;-81
2024/01/19 07:33:59;;;;;;;6.90;4.95;;;;;;;;;;5071088;28;20025;-81
2024/01/19 07:36:25;;;;;;;6.10;4.80;;;;;;;;;;5070681;28;20408;-83
2024/01/19 07:38:51;;;;;;;10.55;5.35;;;;;;;;;;5071252;28;20020;-82
2024/01/19 07:41:17;;;;;;;10.45;5.03;;;;;;;;;;5071890;28;20510;-82
2024/01/19 07:43:43;;;;;;;6.13;4.57;;;;;;;;;;5071823;28;20590;-81
2024/01/19 07:46:11;;;;;;;7.97;4.90;;;;;;;;;;5070965;28;20048;-82
2024/01/19 07:48:37;;;;;;;6.88;4.95;;;;;;;;;;5070939;28;20124;-82
2024/01/19 07:51:03;;;;;;;13.23;6.63;;;;;;;;;;5070363;28;20508;-82
2024/01/19 07:53:29;;;;;;;11.65;7.00;;;;;;;;;;5070649;28;20028;-81
2024/01/19 07:55:55;;;;;;;8.05;5.15;;;;;;;;;;5070639;28;20036;-83
2024/01/19 07:58:21;;;;;;;13.02;6.80;;;;;;;;;;5069316;28;20392;-80
2024/01/19 08:00:47;;;;;;;10.90;6.45;;;;;;;;;;5071440;28;20028;-82
2024/01/19 08:03:14;;;;;;;10.98;6.28;;;;;;;;;;5069985;28;20537;-82
2024/01/19 08:05:40;;;;;;;7.07;5.30;;;;;;;;;;5070084;28;20060;-83
2024/01/19 08:08:06;;;;;;;8.52;5.38;;;;;;;;;;5070376;28;20031;-82
2024/01/19 08:10:34;;;;;;;9.40;5.95;;;;;;;;;;5070393;28;20025;-83
2024/01/19 08:13:00;;;;;;;8.48;6.07;;;;;;;;;;5070427;28;20095;-81
2024/01/19 08:15:26;;;;;;;8.18;5.53;;;;;;;;;;5068911;28;20044;-82
2024/01/19 08:17:52;;;;;;;8.90;5.72;;;;;;;;;;5069850;28;20032;-81
2024/01/19 08:20:18;;;;;;;5.65;4.60;;;;;;;;;;5071067;28;20388;-82
2024/01/19 08:22:44;;;;;;;8.88;4.82;;;;;;;;;;5068848;28;20095;-82
2024/01/19 08:25:10;;;;;;;6.50;4.70;;;;;;;;;;5068822;28;20358;-81
2024/01/19 08:27:39;;;;;;;7.18;4.88;;;;;;;;;;5069919;28;20107;-83
2024/01/19 08:30:06;;;;;;;6.00;4.70;;;;;;;;;;5069835;28;20036;-82
2024/01/19 08:32:32;;;;;;;6.03;4.93;;;;;;;;;;5068663;28;20020;-83
2024/01/19 08:34:58;;;;;;;7.05;4.80;;;;;;;;;;5069582;28;20125;-82
2024/01/19 08:37:24;;;;;;;8.18;5.07;;;;;;;;;;5069489;28;20064;-83
2024/01/19 08:39:50;;;;;;;7.45;4.72;;;;;;;;;;5070698;28;20488;-82
2024/01/19 08:42:16;;;;;;;7.13;4.80;;;;;;;;;;5069133;28;20419;-83
2024/01/19 08:44:45;;;;;;;5.88;4.47;;;;;;;;;;5069804;28;20032;-84
2024/01/19 08:47:11;;;;;;;4.50;4.05;;;;;;;;;;5069695;28;20213;-84
2024/01/19 08:49:37;;;;;;;7.20;4.18;;;;;;;;;;5079566;28;20020;-83
2024/01/19 08:52:03;;;;;;;6.85;4.53;;;;;;;;;;5069210;28;20051;-82
2024/01/19 08:54:29;;;;;;;7.18;5.32;;;;;;;;;;5069642;28;20488;-84
2024/01/19 08:56:55;;;;;;;8.70;5.35;;;;;;;;;;5068118;28;20028;-84
2024/01/19 08:59:22;;;;;;;10.30;6.28;;;;;;;;;;5070283;28;20021;-83
2024/01/19 09:01:48;;;;;;;10.18;7.55;;;;;;;;;;5069116;28;20415;-83
2024/01/19 09:04:15;;;;;;;11.43;6.88;;;;;;;;;;5069498;28;20508;-83
2024/01/19 09:06:41;;;;;;;11.43;6.60;;;;;;;;;;5068864;28;20464;-83
2024/01/19 09:09:08;;;;;;;39.88;20.92;;;;;;;;;;5069462;28;20052;-84
2024/01/19 09:11:34;;;;;;;11.65;8.05;;;;;;;;;;5069344;28;20078;-83
2024/01/19 09:14:02;;;;;;;11.00;6.97;;;;;;;;;;5069364;28;20103;-82
2024/01/19 09:16:28;;;;;;;16.75;7.38;;;;;;;;;;5069309;28;20059;-82
2024/01/19 09:18:54;;;;;;;15.68;8.80;;;;;;;;;;5069238;28;20384;-81
2024/01/19 09:21:20;;;;;;;13.20;8.02;;;;;;;;;;5070103;28;20090;-83
2024/01/19 09:23:46;;;;;;;12.85;7.78;;;;;;;;;;5069271;28;20025;-84
2024/01/19 09:26:21;;;;;;;11.60;6.40;;;;;;;;;;5069165;28;20066;-83
2024/01/19 09:28:48;;;;;;;17.60;8.60;;;;;;;;;;5067360;28;20040;-83
2024/01/19 09:31:14;;;;;;;13.57;7.70;;;;;;;;;;5069188;28;20035;-84
2024/01/19 09:33:40;;;;;;;11.55;6.80;;;;;;;;;;5069301;28;20480;-84
2024/01/19 09:36:06;;;;;;;10.73;5.70;;;;;;;;;;5067748;28;20033;-83
2024/01/19 09:38:35;;;;;;;11.95;5.15;;;;;;;;;;5068864;28;20022;-83
2024/01/19 09:41:19;;;;;;;9.13;4.28;;;;;;;;;;5069028;28;20388;-84
2024/01/19 09:43:46;;;;;;;16.77;5.03;;;;;;;;;;5069054;28;20154;-83
2024/01/19 09:46:18;;;;;;;6.50;5.10;;;;;;;;;;5068899;28;20027;-84
2024/01/19 09:48:52;;;;;;;5.40;3.95;;;;;;;;;;5085152;28;20268;-83
2024/01/19 09:51:18;;;;;;;5.65;4.18;;;;;;;;;;5088955;28;20024;-83
2024/01/19 09:53:49;;;;;;;5.47;3.92;;;;;;;;;;5089049;28;20020;-84
2024/01/19 09:56:15;;;;;;;8.13;3.90;;;;;;;;;;5074873;28;20315;-82
2024/01/19 09:58:42;;;;;;;6.60;3.88;;;;;;;;;;5068785;28;20025;-84
2024/01/19 10:01:08;;;;;;;6.05;5.00;;;;;;;;;;5067387;28;20033;-84
2024/01/19 10:03:36;;;;;;;7.80;4.70;;;;;;;;;;5068754;28;20017;-83
2024/01/19 10:06:03;;;;;;;7.25;4.00;;;;;;;;;;5081974;28;20055;-85
2024/01/19 10:08:29;;;;;;;6.32;3.70;;;;;;;;;;5088890;28;20476;-83
2024/01/19 10:10:56;;;;;;;4.93;3.78;;;;;;;;;;5089615;28;20032;-84
2024/01/19 10:13:22;;;;;;;5.07;3.97;;;;;;;;;;5078007;28;20035;-84
2024/01/19 10:15:48;;;;;;;6.10;3.90;;;;;;;;;;5068571;28;20044;-83
2024/01/19 10:18:14;;;;;;;4.85;3.67;;;;;;;;;;5068727;28;20048;-81
2024/01/19 10:20:41;;;;;;;6.30;4.45;;;;;;;;;;5068150;28;20099;-82
2024/01/19 10:23:27;;;;;;;6.43;3.92;;;;;;;;;;5068333;28;20113;-81
2024/01/19 10:26:11;;;;;;;5.28;3.80;;;;;;;;;;5069442;28;20377;-83
2024/01/19 10:28:37;;;;;;;7.55;5.13;;;;;;;;;;5068464;28;20111;-82
2024/01/19 10:31:22;;;;;;;6.22;3.55;;;;;;;;;;5068518;28;20488;-83
2024/01/19 10:33:48;;;;;;;7.93;3.90;;;;;;;;;;5067083;28;20029;-81
2024/01/19 10:36:15;;;;;;;4.47;3.50;;;;;;;;;;5066535;28;20098;-82
2024/01/19 10:38:41;;;;;;;6.18;3.60;;;;;;;;;;5068386;28;20373;-82
2024/01/19 10:41:16;;;;;;;4.13;3.30;;;;;;;;;;5070801;28;20028;-82
2024/01/19 10:43:42;;;;;;;7.38;3.65;;;;;;;;;;5072114;28;20492;-83
2024/01/19 10:46:21;;;;;;;4.32;2.90;;;;;;;;;;5070223;28;20025;-82
2024/01/19 10:48:50;;;;;;;4.55;3.08;;;;;;;;;;5072064;28;20357;-84
2024/01/19 10:51:17;;;;;;;5.97;3.58;;;;;;;;;;5071990;28;20021;-83
2024/01/19 10:53:43;;;;;;;5.05;3.22;;;;;;;;;;5071903;28;20078;-85
2024/01/19 10:56:09;;;;;;;4.20;3.00;;;;;;;;;;5071701;28;20072;-85
2024/01/19 10:58:35;;;;;;;3.38;2.58;;;;;;;;;;5071856;28;20044;-83
2024/01/19 11:01:14;;;;;;;6.18;4.07;;;;;;;;;;5071631;28;20028;-83
2024/01/19 11:03:42;;;;;;;6.78;4.80;;;;;;;;;;5051847;28;20036;-84
2024/01/19 11:06:08;;;;;;;8.57;5.50;;;;;;;;;;5051734;28;20503;-85
2024/01/19 11:08:34;;;;;;;8.60;5.40;;;;;;;;;;5051667;28;20025;-84
2024/01/19 11:11:01;;;;;;;9.95;6.53;;;;;;;;;;5051594;28;20546;-83
2024/01/19 11:13:27;;;;;;;10.02;6.28;;;;;;;;;;5052346;28;20025;-85
2024/01/19 11:15:56;;;;;;;11.90;6.32;;;;;;;;;;5051304;28;20115;-85
2024/01/19 11:18:23;;;;;;;8.27;6.50;;;;;;;;;;5068089;28;20029;-84
2024/01/19 11:20:51;;;;;;;9.82;6.65;;;;;;;;;;5071352;28;20028;-85
2024/01/19 11:23:17;;;;;;;10.63;6.47;;;;;;;;;;5071406;28;20021;-84
2024/01/19 11:26:00;;;;;;;11.82;6.82;;;;;;;;;;5071433;28;20430;-83
2024/01/19 11:28:49;;;;;;;12.55;6.03;;;;;;;;;;5070582;28;20032;-83
2024/01/19 11:31:18;;;;;;;7.40;5.05;;;;;;;;;;5071339;28;20025;-84
2024/01/19 11:33:44;;;;;;;7.95;4.30;;;;;;;;;;5070690;28;20024;-83
2024/01/19 11:36:10;;;;;;;5.35;3.38;;;;;;;;;;5071115;28;20040;-84
2024/01/19 11:38:39;;;;;;;5.35;3.28;;;;;;;;;;5069706;28;20027;-82
2024/01/19 11:41:05;;;;;;;3.08;2.50;;;;;;;;;;5071037;28;20504;-84
2024/01/19 11:43:41;;;;;;;5.65;2.63;;;;;;;;;;5069698;28;20108;-81
2024/01/19 11:46:08;;;;;;;4.47;2.22;;;;;;;;;;5071028;28;20496;-84
2024/01/19 11:48:47;;;;;;;3.78;2.95;;;;;;;;;;5070348;28;20028;-83
2024/01/19 11:51:33;;;;;;;4.00;2.60;;;;;;;;;;5078323;28;20032;-84
2024/01/19 11:54:00;;;;;;;4.82;3.00;;;;;;;;;;5091848;28;20016;-84
2024/01/19 11:56:26;;;;;;;3.97;2.50;;;;;;;;;;5090883;28;20039;-83
2024/01/19 11:58:55;;;;;;;5.13;2.63;;;;;;;;;;5090866;28;20550;-83
2024/01/19 12:01:22;;;;;;;5.53;2.70;;;;;;;;;;5090758;28;20340;-84
2024/01/19 12:03:52;;;;;;;5.45;2.15;;;;;;;;;;5089659;28;20455;-85
2024/01/19 12:06:18;;;;;;;4.43;2.17;;;;;;;;;;5070558;28;20028;-83
2024/01/19 12:08:44;;;;;;;4.18;2.40;;;;;;;;;;5069995;28;20013;-85
2024/01/19 12:11:11;;;;;;;5.20;2.70;;;;;;;;;;5070556;28;20029;-85
2024/01/19 12:13:38;;;;;;;5.88;2.70;;;;;;;;;;5070482;28;20032;-85
2024/01/19 12:16:05;;;;;;;5.70;2.60;;;;;;;;;;5070293;28;20123;-84
2024/01/19 12:18:34;;;;;;;8.23;2.90;;;;;;;;;;5071123;28;20023;-84
2024/01/19 12:21:01;;;;;;;5.05;3.15;;;;;;;;;;5070692;28;20029;-83
2024/01/19 12:23:32;;;;;;;3.80;2.75;;;;;;;;;;5069857;28;20536;-84
2024/01/19 12:25:59;;;;;;;9.48;3.28;;;;;;;;;;5070909;28;20032;-84
2024/01/19 12:28:26;;;;;;;3.47;2.83;;;;;;;;;;5069884;28;20025;-83
2024/01/19 12:30:52;;;;;;;9.00;3.25;;;;;;;;;;5069992;28;20034;-84
2024/01/19 12:33:21;;;;;;;3.85;3.03;;;;;;;;;;5070005;28;20027;-84
2024/01/19 12:35:47;;;;;;;4.57;3.15;;;;;;;;;;5069961;28;20434;-85
2024/01/19 12:38:17;;;;;;;6.53;3.10;;;;;;;;;;5070193;28;20431;-80
2024/01/19 12:40:44;;;;;;;7.35;3.15;;;;;;;;;;5069552;28;20024;-84
2024/01/19 12:43:10;;;;;;;4.35;3.38;;;;;;;;;;5069980;28;20021;-84
2024/01/19 12:45:36;;;;;;;8.85;3.78;;;;;;;;;;5069682;28;20085;-84
2024/01/19 12:48:02;;;;;;;7.68;3.40;;;;;;;;;;5070574;28;20060;-84
2024/01/19 12:50:28;;;;;;;10.20;4.10;;;;;;;;;;5069739;28;20028;-82
2024/01/19 12:52:55;;;;;;;4.10;3.25;;;;;;;;;;5069577;28;20495;-83
2024/01/19 12:55:27;;;;;;;4.47;3.20;;;;;;;;;;5068964;28;20044;-83
2024/01/19 12:57:53;;;;;;;6.32;3.25;;;;;;;;;;5049632;28;20025;-84
2024/01/19 13:00:24;;;;;;;7.03;3.50;;;;;;;;;;5049584;28;20107;-81
2024/01/19 13:02:54;;;;;;;6.88;3.90;;;;;;;;;;5048905;28;20021;-81
2024/01/19 13:05:20;;;;;;;7.80;4.00;;;;;;;;;;5058026;28;20025;-85
2024/01/19 13:07:47;;;;;;;4.65;3.53;;;;;;;;;;5069470;28;20021;-81
2024/01/19 13:10:20;;;;;;;7.70;3.83;;;;;;;;;;5067942;28;20473;-82
2024/01/19 13:12:46;;;;;;;4.97;3.90;;;;;;;;;;5069033;28;20392;-82
2024/01/19 13:15:13;;;;;;;7.95;3.70;;;;;;;;;;5067829;28;20032;-85
2024/01/19 13:17:42;;;;;;;6.40;3.83;;;;;;;;;;5069572;28;20434;-85
2024/01/19 13:20:11;;;;;;;3.92;3.15;;;;;;;;;;5069260;28;20044;-84
2024/01/19 13:22:37;;;;;;;5.43;3.20;;;;;;;;;;5080241;28;20033;-82
2024/01/19 13:25:04;;;;;;;5.65;2.75;;;;;;;;;;5088937;28;20115;-84
2024/01/19 13:27:30;;;;;;;4.75;3.03;;;;;;;;;;5089370;28;20095;-84
2024/01/19 13:29:56;;;;;;;5.20;2.97;;;;;;;;;;5089093;28;20039;-84
2024/01/19 13:32:23;;;;;;;4.53;2.67;;;;;;;;;;5069620;28;20408;-85
2024/01/19 13:34:49;;;;;;;3.20;2.35;;;;;;;;;;5068656;28;20044;-82
2024/01/19 13:37:15;;;;;;;5.05;2.47;;;;;;;;;;5067735;28;20039;-84
2024/01/19 13:39:41;;;;;;;4.40;2.58;;;;;;;;;;5068992;28;20024;-83
2024/01/19 13:42:08;;;;;;;5.07;2.53;;;;;;;;;;5069405;28;20025;-81
2024/01/19 13:44:35;;;;;;;5.40;2.40;;;;;;;;;;5069310;28;20028;-84
2024/01/19 13:47:01;;;;;;;3.85;2.40;;;;;;;;;;5068967;28;20023;-85
2024/01/19 13:49:27;;;;;;;6.10;3.15;;;;;;;;;;5068852;28;20052;-84
2024/01/19 13:51:53;;;;;;;4.78;2.83;;;;;;;;;;5068851;28;20048;-83
2024/01/19 13:54:19;;;;;;;4.22;2.30;;;;;;;;;;5068815;28;20029;-84
2024/01/19 13:56:45;;;;;;;4.63;2.28;;;;;;;;;;5068722;28;20029;-83
2024/01/19 13:59:11;;;;;;;6.22;2.30;;;;;;;;;;5068137;28;20029;-83
2024/01/19 14:01:37;;;;;;;3.00;2.13;;;;;;;;;;5069586;28;20108;-83
2024/01/19 14:04:07;;;;;;;4.15;2.30;;;;;;;;;;5069270;28;20496;-83
2024/01/19 14:06:34;;;;;;;3.50;2.40;;;;;;;;;;5067944;28;20374;-83
2024/01/19 14:09:01;;;;;;;5.07;2.38;;;;;;;;;;5068675;28;20029;-83
2024/01/19 14:11:27;;;;;;;4.23;2.50;;;;;;;;;;5068770;28;20051;-83
2024/01/19 14:13:54;;;;;;;2.38;2.17;;;;;;;;;;5068854;28;20044;-84
2024/01/19 14:16:20;;;;;;;4.28;2.10;;;;;;;;;;5072611;28;20040;-82
2024/01/19 14:18:46;;;;;;;3.80;1.90;;;;;;;;;;5072431;28;20025;-82
2024/01/19 14:21:13;;;;;;;5.50;2.38;;;;;;;;;;5072540;28;20039;-83
2024/01/19 14:23:39;;;;;;;2.70;2.10;;;;;;;;;;5073010;28;20054;-79
2024/01/19 14:26:05;;;;;;;5.28;2.10;;;;;;;;;;5073231;28;20035;-81
2024/01/19 14:28:32;;;;;;;3.25;2.45;;;;;;;;;;5072275;28;20029;-83
2024/01/19 14:30:58;;;;;;;6.35;2.35;;;;;;;;;;5072310;28;20031;-80